Pure — PB5046 — position and weather

sailwx.info

Track history (hours):
 
Tides and Currents Weather Stations Pressure Air Temp Water Temp Dewpoint Dewpoint Depression Visibility Wind Speed Wind Dir Waves Ship Positions

Pure

Last reported at 2017-Apr-26 09:30 UTC. Time now 2017-Apr-26 09:58 UTC.
Position N 52°57' E 005°19'.

Length 15 m.

Type: Sailing vessel. MMSI: 244750105.

Date/timePositionNaut miles runAvg speedWind from/ knotsBaromVisibWave heightAir tempDewpointWater temp
2017-Apr-26 09:30N 52°57' E 005°19'4 7.3
2017-Apr-26 09:00N 52°54' E 005°18'4 7.2
2017-Apr-26 08:30N 52°51' E 005°14'3 5.7
2017-Apr-26 08:00N 52°49' E 005°11'2 4.2
2017-Apr-26 07:30N 52°48' E 005°08'2 0.1
2017-Apr-25 18:07N 52°46' E 005°07'0 0.0
2017-Apr-25 17:58N 52°46' E 005°07'0 0.0
2017-Apr-25 17:29N 52°46' E 005°07'1 1.6
2017-Apr-25 17:00N 52°47' E 005°07'4 7.1
2017-Apr-25 16:30N 52°49' E 005°11'3 6.3
2017-Apr-25 16:00N 52°51' E 005°15'3 6.3
2017-Apr-25 15:30N 52°54' E 005°18'4 7.3
2017-Apr-25 15:00N 52°58' E 005°19'4 7.7
2017-Apr-25 14:30N 53°01' E 005°20'3 3.0
2017-Apr-25 13:30N 53°04' E 005°20'0 0.7
2017-Apr-25 13:00N 53°05' E 005°20'3 6.4
2017-Apr-25 12:30N 53°08' E 005°22'3 6.4
2017-Apr-25 12:00N 53°10' E 005°24'0 0.7
2017-Apr-25 11:29N 53°11' E 005°25'0 0.0
2017-Apr-24 16:49N 53°11' E 005°25'0 0.1
2017-Apr-24 16:30N 53°11' E 005°25'3 5.1
2017-Apr-24 16:00N 53°08' E 005°23'4 7.3
2017-Apr-24 15:30N 53°05' E 005°20'1 1.6
2017-Apr-24 14:57N 53°04' E 005°20'0 1.1
2017-Apr-24 14:30N 53°04' E 005°21'1 1.0
2017-Apr-24 13:30N 53°04' E 005°19'1 2.3
2017-Apr-24 13:00N 53°03' E 005°18'2 3.7
2017-Apr-24 12:30N 53°04' E 005°21'2 3.8
2017-Apr-24 11:59N 53°03' E 005°24'0 0.0
2017-Apr-24 11:29N 53°03' E 005°24'0 0.0
2017-Apr-24 10:59N 53°03' E 005°24'0 0.1
2017-Apr-24 10:29N 53°03' E 005°24'0 0.1
2017-Apr-24 10:00N 53°03' E 005°24'0 0.0
2017-Apr-24 09:30N 53°03' E 005°24'0 0.0
2017-Apr-24 09:00N 53°03' E 005°24'0 0.0
2017-Apr-24 08:30N 53°03' E 005°24'0 0.0
2017-Apr-24 08:00N 53°03' E 005°24'0 0.0
2017-Apr-24 07:30N 53°03' E 005°24'0 0.0
2017-Apr-24 07:00N 53°03' E 005°24'0 0.0
2017-Apr-24 06:30N 53°03' E 005°24'0 0.0
2017-Apr-24 06:00N 53°03' E 005°24'0 0.0
2017-Apr-23 20:13N 53°03' E 005°24'0 0.0
2017-Apr-23 19:58N 53°03' E 005°24'0 0.0
2017-Apr-23 19:28N 53°03' E 005°24'0 0.0
2017-Apr-23 18:58N 53°03' E 005°24'0 0.0
2017-Apr-23 18:28N 53°03' E 005°24'0 0.0
2017-Apr-23 17:58N 53°03' E 005°24'0 0.0
2017-Apr-23 17:28N 53°03' E 005°24'0 0.0
2017-Apr-23 16:58N 53°03' E 005°24'0 0.0
2017-Apr-23 16:28N 53°03' E 005°24'0 0.0
2017-Apr-23 15:59N 53°03' E 005°24'0 0.0
2017-Apr-23 15:28N 53°03' E 005°24'0 0.0
2017-Apr-23 14:58N 53°03' E 005°24'0 0.0
2017-Apr-21 12:15N 53°03' E 005°24'0 0.0
2017-Apr-21 12:00N 53°03' E 005°24'  
Track history (hours):
 
Tides and Currents Weather Stations Pressure Air Temp Water Temp Dewpoint Dewpoint Depression Visibility Wind Speed Wind Dir Waves Ship Positions

Pure

Last reported at 2017-Apr-26 09:30 UTC. Time now 2017-Apr-26 09:58 UTC.
Position N 52°57' E 005°19'.

Length 15 m.

Type: Sailing vessel. MMSI: 244750105.

Date/timePositionNaut miles runAvg speedWind from/ knotsBaromVisibWave heightAir tempDewpointWater temp
2017-Apr-26 09:30N 52°57' E 005°19'4 7.3
2017-Apr-26 09:00N 52°54' E 005°18'4 7.2
2017-Apr-26 08:30N 52°51' E 005°14'3 5.7
2017-Apr-26 08:00N 52°49' E 005°11'2 4.2
2017-Apr-26 07:30N 52°48' E 005°08'2 0.1
2017-Apr-25 18:07N 52°46' E 005°07'0 0.0
2017-Apr-25 17:58N 52°46' E 005°07'0 0.0
2017-Apr-25 17:29N 52°46' E 005°07'1 1.6
2017-Apr-25 17:00N 52°47' E 005°07'4 7.1
2017-Apr-25 16:30N 52°49' E 005°11'3 6.3
2017-Apr-25 16:00N 52°51' E 005°15'3 6.3
2017-Apr-25 15:30N 52°54' E 005°18'4 7.3
2017-Apr-25 15:00N 52°58' E 005°19'4 7.7
2017-Apr-25 14:30N 53°01' E 005°20'3 3.0
2017-Apr-25 13:30N 53°04' E 005°20'0 0.7
2017-Apr-25 13:00N 53°05' E 005°20'3 6.4
2017-Apr-25 12:30N 53°08' E 005°22'3 6.4
2017-Apr-25 12:00N 53°10' E 005°24'0 0.7
2017-Apr-25 11:29N 53°11' E 005°25'0 0.0
2017-Apr-24 16:49N 53°11' E 005°25'0 0.1
2017-Apr-24 16:30N 53°11' E 005°25'3 5.1
2017-Apr-24 16:00N 53°08' E 005°23'4 7.3
2017-Apr-24 15:30N 53°05' E 005°20'1 1.6
2017-Apr-24 14:57N 53°04' E 005°20'0 1.1
2017-Apr-24 14:30N 53°04' E 005°21'1 1.0
2017-Apr-24 13:30N 53°04' E 005°19'1 2.3
2017-Apr-24 13:00N 53°03' E 005°18'2 3.7
2017-Apr-24 12:30N 53°04' E 005°21'2 3.8
2017-Apr-24 11:59N 53°03' E 005°24'0 0.0
2017-Apr-24 11:29N 53°03' E 005°24'0 0.0
2017-Apr-24 10:59N 53°03' E 005°24'0 0.1
2017-Apr-24 10:29N 53°03' E 005°24'0 0.1
2017-Apr-24 10:00N 53°03' E 005°24'0 0.0
2017-Apr-24 09:30N 53°03' E 005°24'0 0.0
2017-Apr-24 09:00N 53°03' E 005°24'0 0.0
2017-Apr-24 08:30N 53°03' E 005°24'0 0.0
2017-Apr-24 08:00N 53°03' E 005°24'0 0.0
2017-Apr-24 07:30N 53°03' E 005°24'0 0.0
2017-Apr-24 07:00N 53°03' E 005°24'0 0.0
2017-Apr-24 06:30N 53°03' E 005°24'0 0.0
2017-Apr-24 06:00N 53°03' E 005°24'0 0.0
2017-Apr-23 20:13N 53°03' E 005°24'0 0.0
2017-Apr-23 19:58N 53°03' E 005°24'0 0.0
2017-Apr-23 19:28N 53°03' E 005°24'0 0.0
2017-Apr-23 18:58N 53°03' E 005°24'0 0.0
2017-Apr-23 18:28N 53°03' E 005°24'0 0.0
2017-Apr-23 17:58N 53°03' E 005°24'0 0.0
2017-Apr-23 17:28N 53°03' E 005°24'0 0.0
2017-Apr-23 16:58N 53°03' E 005°24'0 0.0
2017-Apr-23 16:28N 53°03' E 005°24'0 0.0
2017-Apr-23 15:59N 53°03' E 005°24'0 0.0
2017-Apr-23 15:28N 53°03' E 005°24'0 0.0
2017-Apr-23 14:58N 53°03' E 005°24'0 0.0
2017-Apr-21 12:15N 53°03' E 005°24'0 0.0
2017-Apr-21 12:00N 53°03' E 005°24'  

Dump ship's entire track history